Time;durP1;ratioP1;P1;durP2;ratioP2;P2;SDS_P1;SDS_P2;PMS_P1;PMS_P2;Temp;Humidity;BMP_temperature;BMP_pressure;BME280_temperature;BME280_humidity;BME280_pressure;Samples;Min_cycle;Max_cycle;Signal;HPM_P1;HPM_P2
2021/12/21 00:00:51;;;;;;;36.03;23.23;;;-2.40;99.90;;;;;;5064186;28;20059;-68
2021/12/21 00:03:17;;;;;;;35.80;22.90;;;-2.40;99.90;;;;;;5067999;28;20049;-68
2021/12/21 00:05:43;;;;;;;33.28;22.98;;;-2.40;99.90;;;;;;5066448;28;20052;-67
2021/12/21 00:08:12;;;;;;;38.50;21.50;;;-2.40;99.90;;;;;;5081286;28;20040;-68
2021/12/21 00:10:39;;;;;;;31.33;21.98;;;-2.40;99.90;;;;;;5065132;28;20078;-67
2021/12/21 00:13:22;;;;;;;32.80;22.05;;;-2.40;99.90;;;;;;5081204;28;20545;-68
2021/12/21 00:15:58;;;;;;;32.25;22.17;;;-2.40;99.90;;;;;;5062855;28;20051;-67
2021/12/21 00:20:55;;;;;;;29.70;21.10;;;-2.50;99.90;;;;;;5083235;28;20056;-68
2021/12/21 00:23:35;;;;;;;27.23;20.65;;;-2.50;99.90;;;;;;5065206;28;20048;-67
2021/12/21 00:26:03;;;;;;;32.90;20.85;;;-2.50;99.90;;;;;;5080143;28;20063;-67
2021/12/21 00:31:13;;;;;;;32.20;20.52;;;-2.50;99.90;;;;;;5063570;28;20374;-68
2021/12/21 00:33:41;;;;;;;30.35;19.75;;;-2.60;99.90;;;;;;5064726;28;20051;-68
2021/12/21 00:36:08;;;;;;;32.92;21.13;;;-2.60;99.90;;;;;;5061226;28;20091;-68
2021/12/21 00:38:34;;;;;;;25.92;19.80;;;-2.60;99.90;;;;;;5068398;28;20090;-67
2021/12/21 00:41:00;;;;;;;32.92;21.98;;;-2.60;99.90;;;;;;5066214;28;20044;-67
2021/12/21 00:43:26;;;;;;;32.50;18.92;;;-2.60;99.90;;;;;;5067405;28;20044;-67
2021/12/21 00:45:52;;;;;;;28.90;20.02;;;-2.60;99.90;;;;;;5080911;28;20147;-67
2021/12/21 00:48:18;;;;;;;34.30;20.60;;;-2.60;99.90;;;;;;5086903;28;20135;-67
2021/12/21 00:50:45;;;;;;;34.10;19.27;;;-2.70;99.90;;;;;;5065183;28;20079;-67
2021/12/21 00:53:12;;;;;;;33.15;19.98;;;-2.70;99.90;;;;;;5078884;28;20050;-67
2021/12/21 00:55:38;;;;;;;29.15;18.95;;;-2.70;99.90;;;;;;5065136;28;20110;-67
2021/12/21 00:58:04;;;;;;;30.50;19.42;;;-2.70;99.90;;;;;;5088156;28;20056;-67
2021/12/21 01:00:30;;;;;;;30.95;20.58;;;-2.70;99.90;;;;;;5062574;28;20114;-67
2021/12/21 01:03:00;;;;;;;29.48;20.08;;;-2.70;99.90;;;;;;5086309;28;20501;-67
2021/12/21 01:05:34;;;;;;;28.52;19.33;;;-2.80;99.90;;;;;;5082411;28;20501;-67
2021/12/21 01:08:03;;;;;;;32.50;20.73;;;-2.80;99.90;;;;;;5087059;28;20046;-67
2021/12/21 01:11:02;;;;;;;36.13;20.02;;;-2.80;99.90;;;;;;5085244;28;20052;-67
2021/12/21 01:16:15;;;;;;;33.78;19.80;;;-2.90;99.90;;;;;;5026711;28;20062;-67
2021/12/21 01:18:59;;;;;;;28.50;19.50;;;-2.90;99.90;;;;;;5057864;28;20044;-67
2021/12/21 01:21:29;;;;;;;34.67;19.95;;;-2.90;99.90;;;;;;5064097;28;20049;-67
2021/12/21 01:27:00;;;;;;;27.02;20.38;;;-2.90;99.90;;;;;;5084523;28;20079;-67
2021/12/21 01:32:24;;;;;;;31.02;20.10;;;-3.00;99.90;;;;;;5080206;28;20052;-67
2021/12/21 01:35:01;;;;;;;27.40;21.85;;;-3.00;99.90;;;;;;5082751;28;20106;-67
2021/12/21 01:40:12;;;;;;;30.67;19.95;;;-3.00;99.90;;;;;;5079536;28;20564;-67
2021/12/21 01:42:53;;;;;;;25.25;20.45;;;-3.00;99.90;;;;;;5081411;28;20051;-67
2021/12/21 01:50:53;;;;;;;30.38;20.73;;;-2.90;99.90;;;;;;5081870;28;20402;-67
2021/12/21 01:53:19;;;;;;;26.65;19.83;;;-2.90;99.90;;;;;;5081271;28;20158;-67
2021/12/21 01:55:46;;;;;;;34.70;22.25;;;-2.90;99.90;;;;;;5082557;28;20119;-67
2021/12/21 01:58:12;;;;;;;36.38;21.75;;;-2.90;99.90;;;;;;5061863;28;20044;-67
2021/12/21 02:00:39;;;;;;;35.55;21.45;;;-2.90;99.90;;;;;;5084909;28;20573;-67
2021/12/21 02:03:06;;;;;;;31.27;20.40;;;-2.90;99.90;;;;;;5066514;28;20083;-67
2021/12/21 02:05:32;;;;;;;27.02;19.25;;;-2.90;99.90;;;;;;5086471;28;20072;-67
2021/12/21 02:07:58;;;;;;;27.15;19.95;;;-2.90;99.90;;;;;;5062556;28;20052;-67
2021/12/21 02:10:23;;;;;;;29.90;19.58;;;-2.90;99.90;;;;;;5064833;28;20420;-67
2021/12/21 02:12:49;;;;;;;28.23;19.20;;;-3.00;99.90;;;;;;5087377;28;20047;-67
2021/12/21 02:15:15;;;;;;;26.60;19.00;;;-3.00;99.90;;;;;;5081705;28;20079;-67
2021/12/21 02:18:32;;;;;;;25.48;18.92;;;-3.00;99.90;;;;;;5062482;28;20040;-67
2021/12/21 02:23:10;;;;;;;26.10;18.63;;;-3.10;99.90;;;;;;5061931;28;20749;-67
2021/12/21 02:30:43;;;;;;;32.67;20.02;;;-3.10;99.90;;;;;;5090579;28;20047;-67
2021/12/21 02:33:09;;;;;;;23.48;18.75;;;-3.20;99.90;;;;;;5065906;28;20040;-67
2021/12/21 02:35:36;;;;;;;27.60;18.77;;;-3.10;99.90;;;;;;5061711;28;20051;-67
2021/12/21 02:38:01;;;;;;;26.63;18.33;;;-3.20;99.90;;;;;;5061514;28;20055;-67
2021/12/21 02:40:27;;;;;;;27.33;18.45;;;-3.20;99.90;;;;;;5088700;28;20055;-67
2021/12/21 02:42:53;;;;;;;23.15;17.85;;;-3.20;99.90;;;;;;5087532;28;20440;-67
2021/12/21 02:45:19;;;;;;;21.42;17.00;;;-3.20;99.90;;;;;;5081382;28;20036;-67
2021/12/21 02:47:44;;;;;;;27.00;19.00;;;-3.20;99.90;;;;;;5084021;28;20075;-67
2021/12/21 02:50:10;;;;;;;24.83;17.35;;;-3.20;99.90;;;;;;5087973;28;20044;-67
2021/12/21 02:52:36;;;;;;;24.15;17.48;;;-3.20;99.90;;;;;;5063297;28;20044;-67
2021/12/21 02:55:04;;;;;;;24.33;17.60;;;-3.20;99.90;;;;;;5079926;28;20135;-67
2021/12/21 02:57:30;;;;;;;26.23;16.67;;;-3.30;99.90;;;;;;5065428;28;20124;-67
2021/12/21 02:59:56;;;;;;;22.23;16.13;;;-3.30;99.90;;;;;;5088953;28;20681;-67
2021/12/21 03:02:22;;;;;;;22.92;16.15;;;-3.30;99.90;;;;;;5083840;28;20096;-67
2021/12/21 03:04:50;;;;;;;21.88;15.93;;;-3.30;99.90;;;;;;5082497;28;20427;-67
2021/12/21 03:09:54;;;;;;;21.00;16.25;;;-3.30;99.90;;;;;;5088191;28;20389;-67
2021/12/21 03:14:46;;;;;;;23.08;16.58;;;-3.30;99.90;;;;;;5083892;28;20455;-67
2021/12/21 03:17:12;;;;;;;24.17;17.90;;;-3.40;99.90;;;;;;5065856;28;20048;-67
2021/12/21 03:19:38;;;;;;;28.88;16.92;;;-3.40;99.90;;;;;;5061760;28;20055;-67
2021/12/21 03:22:05;;;;;;;22.27;16.38;;;-3.40;99.90;;;;;;5083220;28;20061;-67
2021/12/21 03:24:31;;;;;;;22.02;16.50;;;-3.40;99.90;;;;;;5062705;28;20458;-68
2021/12/21 03:26:57;;;;;;;20.58;16.38;;;-3.40;99.90;;;;;;5060662;28;20114;-67
2021/12/21 03:29:24;;;;;;;25.55;16.10;;;-3.40;99.90;;;;;;5062602;28;20584;-67
2021/12/21 03:31:50;;;;;;;20.00;16.43;;;-3.40;99.90;;;;;;5050479;28;20048;-67
2021/12/21 03:34:16;;;;;;;24.10;15.80;;;-3.40;99.90;;;;;;5088088;28;20051;-67
2021/12/21 03:36:41;;;;;;;19.13;14.30;;;-3.50;99.90;;;;;;5077607;28;20041;-67
2021/12/21 03:39:10;;;;;;;20.20;15.80;;;-3.50;99.90;;;;;;5087328;28;20472;-67
2021/12/21 03:41:44;;;;;;;21.73;15.40;;;-3.50;99.90;;;;;;5085796;28;20532;-67
2021/12/21 03:44:10;;;;;;;26.05;16.38;;;-3.50;99.90;;;;;;5083984;28;20134;-67
2021/12/21 03:46:37;;;;;;;23.17;16.35;;;-3.50;99.90;;;;;;5079499;28;20052;-67
2021/12/21 03:49:24;;;;;;;22.95;15.57;;;-3.50;99.90;;;;;;5067274;28;20056;-67
2021/12/21 03:51:48;;;;;;;20.07;15.30;;;-3.50;99.90;;;;;;5084564;28;20049;-67
2021/12/21 03:54:14;;;;;;;21.42;16.08;;;-3.50;99.90;;;;;;5080900;28;20044;-67
2021/12/21 03:56:41;;;;;;;19.85;15.48;;;-3.50;99.90;;;;;;5086238;28;20114;-67
2021/12/21 03:59:07;;;;;;;22.25;15.52;;;-3.50;99.90;;;;;;5068053;28;20048;-67
2021/12/21 04:01:33;;;;;;;26.63;15.98;;;-3.50;99.90;;;;;;5081506;28;20036;-67
2021/12/21 04:03:59;;;;;;;23.80;15.97;;;-3.50;99.90;;;;;;5087187;28;20066;-67
2021/12/21 04:06:24;;;;;;;24.42;16.48;;;-3.50;99.90;;;;;;5086940;28;20780;-67
2021/12/21 04:08:50;;;;;;;18.55;15.70;;;-3.50;99.90;;;;;;5066045;28;20489;-67
2021/12/21 04:11:16;;;;;;;21.92;15.80;;;-3.50;99.90;;;;;;5082278;28;20059;-67
2021/12/21 04:13:42;;;;;;;29.02;16.35;;;-3.50;99.90;;;;;;5065164;28;20048;-67
2021/12/21 04:16:08;;;;;;;21.13;15.60;;;-3.50;99.90;;;;;;5087148;28;20040;-67
2021/12/21 04:18:36;;;;;;;20.85;15.43;;;-3.50;99.90;;;;;;5069359;28;20539;-67
2021/12/21 04:21:03;;;;;;;21.92;15.60;;;-3.50;99.90;;;;;;5083515;28;20040;-67
2021/12/21 04:23:29;;;;;;;15.50;13.90;;;-3.50;99.90;;;;;;5069672;28;20072;-67
2021/12/21 04:25:55;;;;;;;21.00;15.68;;;-3.50;99.90;;;;;;5079805;28;20536;-67
2021/12/21 04:28:21;;;;;;;20.40;13.73;;;-3.50;99.90;;;;;;5080325;28;20467;-67
2021/12/21 04:30:47;;;;;;;26.15;15.95;;;-3.60;99.90;;;;;;5081720;28;20646;-67
2021/12/21 04:33:12;;;;;;;17.58;14.15;;;-3.50;99.90;;;;;;5066398;28;20413;-67
2021/12/21 04:35:38;;;;;;;22.05;14.20;;;-3.60;99.90;;;;;;5084263;28;20702;-67
2021/12/21 04:38:21;;;;;;;18.83;14.80;;;-3.60;99.90;;;;;;5079833;28;20076;-67
2021/12/21 04:40:57;;;;;;;30.30;15.30;;;-3.60;99.90;;;;;;5063099;28;20047;-67
2021/12/21 04:43:23;;;;;;;20.77;15.05;;;-3.60;99.90;;;;;;5080713;28;20059;-67
2021/12/21 04:45:49;;;;;;;22.27;14.02;;;-3.60;99.90;;;;;;5082539;28;20044;-67
2021/12/21 04:48:15;;;;;;;18.95;14.32;;;-3.70;99.90;;;;;;5062459;28;20036;-67
2021/12/21 04:50:42;;;;;;;20.10;14.57;;;-3.60;99.90;;;;;;5067786;28;20467;-67
2021/12/21 04:53:08;;;;;;;21.63;15.30;;;-3.70;99.90;;;;;;5063634;28;20044;-67
2021/12/21 04:55:34;;;;;;;25.47;14.87;;;-3.70;99.90;;;;;;5062875;28;20036;-67
2021/12/21 04:57:59;;;;;;;17.90;13.90;;;-3.60;99.90;;;;;;5060751;28;20098;-67
2021/12/21 05:00:26;;;;;;;21.63;15.02;;;-3.60;99.90;;;;;;5088049;28;20152;-67
2021/12/21 05:02:51;;;;;;;25.05;15.10;;;-3.60;99.90;;;;;;5064079;28;20040;-67
2021/12/21 05:05:19;;;;;;;22.33;15.53;;;-3.60;99.90;;;;;;5070513;28;20032;-67
2021/12/21 05:07:50;;;;;;;19.95;15.57;;;-3.60;99.90;;;;;;5085362;28;20043;-67
2021/12/21 05:10:18;;;;;;;21.20;15.60;;;-3.60;99.90;;;;;;5064649;28;20052;-67
2021/12/21 05:12:44;;;;;;;22.55;15.85;;;-3.60;99.90;;;;;;5078711;28;20052;-67
2021/12/21 05:15:10;;;;;;;20.63;14.77;;;-3.60;99.90;;;;;;5068810;28;20157;-67
2021/12/21 05:17:35;;;;;;;24.07;15.90;;;-3.60;99.90;;;;;;5062413;28;20066;-67
2021/12/21 05:20:01;;;;;;;20.60;15.37;;;-3.60;99.90;;;;;;5078171;28;20639;-67
2021/12/21 05:22:27;;;;;;;26.37;16.77;;;-3.60;99.90;;;;;;5061874;28;20036;-67
2021/12/21 05:24:53;;;;;;;22.67;15.00;;;-3.60;99.90;;;;;;5085230;28;20578;-67
2021/12/21 05:27:19;;;;;;;21.80;16.00;;;-3.60;99.90;;;;;;5086839;28;20056;-67
2021/12/21 05:29:45;;;;;;;25.53;17.00;;;-3.60;99.90;;;;;;5063157;28;20076;-67
2021/12/21 05:32:11;;;;;;;21.27;16.20;;;-3.60;99.90;;;;;;5062811;28;20114;-67
2021/12/21 05:34:37;;;;;;;24.13;16.97;;;-3.60;99.90;;;;;;5086922;28;20039;-67
2021/12/21 05:37:06;;;;;;;25.30;14.83;;;-3.60;99.90;;;;;;5067346;28;20036;-67
2021/12/21 05:39:42;;;;;;;22.90;16.93;;;-3.60;99.90;;;;;;5080745;28;20062;-67
2021/12/21 05:42:08;;;;;;;29.88;16.33;;;-3.60;99.90;;;;;;5086001;28;20048;-67
2021/12/21 05:44:34;;;;;;;20.80;16.00;;;-3.60;99.90;;;;;;5063289;28;20051;-67
2021/12/21 05:47:00;;;;;;;25.83;15.88;;;-3.60;99.90;;;;;;5063254;28;20067;-67
2021/12/21 05:49:25;;;;;;;32.67;15.13;;;-3.60;99.90;;;;;;5087310;28;20127;-67
2021/12/21 05:51:52;;;;;;;22.53;15.17;;;-3.60;99.90;;;;;;5082466;28;20055;-67
2021/12/21 05:54:21;;;;;;;24.15;14.60;;;-3.70;99.90;;;;;;5084176;28;20052;-67
2021/12/21 05:56:48;;;;;;;24.33;15.90;;;-3.60;99.90;;;;;;5081540;28;20382;-67
2021/12/21 05:59:14;;;;;;;25.10;16.10;;;-3.60;99.90;;;;;;5077241;28;20059;-67
2021/12/21 06:01:39;;;;;;;21.03;15.83;;;-3.70;99.90;;;;;;5089486;28;20497;-67
2021/12/21 06:04:05;;;;;;;24.43;15.07;;;-3.70;99.90;;;;;;5088704;28;20072;-67
2021/12/21 06:06:32;;;;;;;21.77;15.67;;;-3.80;99.90;;;;;;5086646;28;20398;-67
2021/12/21 06:09:02;;;;;;;24.00;15.80;;;-3.80;99.90;;;;;;5081786;28;20565;-67
2021/12/21 06:11:29;;;;;;;25.73;15.30;;;-3.80;99.90;;;;;;5090136;28;20133;-67
2021/12/21 06:27:29;;;;;;;30.67;15.15;;;-3.90;99.90;;;;;;5066486;28;20060;-67
2021/12/21 06:29:55;;;;;;;21.33;15.27;;;-3.90;99.90;;;;;;5084921;28;20457;-67
2021/12/21 06:32:21;;;;;;;20.63;16.43;;;-3.90;99.90;;;;;;5091734;28;20156;-67
2021/12/21 06:34:47;;;;;;;23.93;15.63;;;-3.90;99.90;;;;;;5090306;28;20056;-67
2021/12/21 06:37:13;;;;;;;24.17;16.37;;;-3.90;99.90;;;;;;5061770;28;20051;-67
2021/12/21 06:39:39;;;;;;;25.17;15.90;;;-3.90;99.90;;;;;;5078198;28;20496;-67
2021/12/21 06:42:05;;;;;;;24.92;15.52;;;-3.90;99.90;;;;;;5088813;28;20036;-67
2021/12/21 06:44:31;;;;;;;20.63;15.30;;;-3.90;99.90;;;;;;5070933;28;20462;-67
2021/12/21 06:52:34;;;;;;;27.55;16.67;;;-4.00;99.90;;;;;;5065872;28;20453;-67
2021/12/21 06:55:00;;;;;;;23.40;16.13;;;-4.00;99.90;;;;;;5065454;28;20105;-67
2021/12/21 06:57:26;;;;;;;20.47;15.37;;;-4.00;99.90;;;;;;5067288;28;20047;-67
2021/12/21 06:59:52;;;;;;;23.87;16.63;;;-4.00;99.90;;;;;;5063016;28;20045;-67
2021/12/21 07:02:18;;;;;;;24.67;16.10;;;-4.00;99.90;;;;;;5054643;28;20052;-66
2021/12/21 07:04:44;;;;;;;21.13;17.10;;;-4.00;99.90;;;;;;5082846;28;20044;-66
2021/12/21 07:07:10;;;;;;;24.80;16.13;;;-4.00;99.90;;;;;;5069559;28;20058;-67
2021/12/21 07:09:41;;;;;;;26.33;17.90;;;-4.10;99.90;;;;;;5080973;28;20051;-67
2021/12/21 07:20:10;;;;;;;26.20;17.43;;;-4.20;99.90;;;;;;5065913;28;20052;-67
2021/12/21 07:22:36;;;;;;;27.47;17.47;;;-4.20;99.90;;;;;;5091055;28;20063;-67
2021/12/21 07:25:03;;;;;;;29.90;17.33;;;-4.20;99.90;;;;;;5089748;28;20040;-67
2021/12/21 07:27:29;;;;;;;27.80;17.53;;;-4.20;99.90;;;;;;5083279;28;20060;-67
2021/12/21 07:29:54;;;;;;;30.40;17.53;;;-4.20;99.90;;;;;;5072105;28;20040;-67
2021/12/21 07:32:20;;;;;;;29.63;17.73;;;-4.20;99.90;;;;;;5090420;28;20093;-67
2021/12/21 07:34:46;;;;;;;27.83;17.30;;;-4.20;99.90;;;;;;5085201;28;20044;-67
2021/12/21 07:37:11;;;;;;;27.80;17.37;;;-4.20;99.90;;;;;;5087154;28;20055;-67
2021/12/21 07:39:37;;;;;;;21.90;17.07;;;-4.20;99.90;;;;;;5062933;28;20482;-67
2021/12/21 07:42:06;;;;;;;26.50;17.43;;;-4.20;99.90;;;;;;5088247;28;20036;-67
2021/12/21 07:44:32;;;;;;;;;;;-4.20;99.90;;;;;;5089112;28;20047;-66
2021/12/21 07:46:58;;;;;;;19.97;14.40;;;-4.30;99.90;;;;;;5067134;28;19928;-67
2021/12/21 07:49:24;;;;;;;22.53;15.73;;;-4.30;99.90;;;;;;5083910;28;20416;-66
2021/12/21 07:51:50;;;;;;;21.10;15.10;;;-4.20;99.90;;;;;;5049985;28;20147;-67
2021/12/21 07:54:17;;;;;;;25.60;16.53;;;-4.20;99.90;;;;;;5063416;28;20402;-67
2021/12/21 07:56:44;;;;;;;19.40;14.90;;;-4.20;99.90;;;;;;5062562;28;20494;-67
2021/12/21 07:59:14;;;;;;;23.60;16.53;;;-4.20;99.90;;;;;;5079683;28;20056;-67
2021/12/21 08:01:40;;;;;;;24.50;15.27;;;-4.10;99.90;;;;;;5082988;28;20071;-67
2021/12/21 08:04:09;;;;;;;18.07;14.83;;;-4.10;99.90;;;;;;5086004;28;20052;-67
2021/12/21 08:06:36;;;;;;;19.13;14.13;;;-4.10;99.90;;;;;;5062444;28;20063;-67
2021/12/21 08:09:03;;;;;;;19.13;14.33;;;-4.10;99.90;;;;;;5067062;28;20117;-67
2021/12/21 08:14:04;;;;;;;19.03;15.73;;;-4.10;99.90;;;;;;5075942;28;20294;-67
2021/12/21 08:16:30;;;;;;;30.40;17.40;;;-4.10;99.90;;;;;;5088639;28;20413;-66
2021/12/21 08:18:57;;;;;;;26.03;16.87;;;-4.10;99.90;;;;;;5062607;28;20056;-67
2021/12/21 08:21:25;;;;;;;26.53;17.17;;;-4.10;99.90;;;;;;5084055;28;20052;-67
2021/12/21 08:23:51;;;;;;;27.42;22.95;;;-4.00;99.90;;;;;;5060878;28;20048;-68
2021/12/21 08:26:17;;;;;;;104.80;29.52;;;-4.00;99.90;;;;;;5069522;28;20463;-69
2021/12/21 08:28:43;;;;;;;28.53;19.10;;;-4.00;99.90;;;;;;5084734;28;20055;-67
2021/12/21 08:31:11;;;;;;;22.67;18.57;;;-3.90;99.90;;;;;;5085549;28;20509;-71
2021/12/21 08:33:37;;;;;;;25.10;18.73;;;-3.90;99.90;;;;;;5057882;28;20529;-71
2021/12/21 08:36:05;;;;;;;29.53;20.37;;;-3.90;99.90;;;;;;5062441;28;20109;-71
2021/12/21 08:38:32;;;;;;;28.08;22.63;;;-3.80;99.90;;;;;;5064503;28;20057;-71
2021/12/21 08:40:59;;;;;;;25.63;21.20;;;-3.80;99.90;;;;;;5080878;28;20485;-71
2021/12/21 08:43:28;;;;;;;32.07;22.43;;;-3.80;99.90;;;;;;5088609;28;20056;-72
2021/12/21 08:45:55;;;;;;;29.40;21.57;;;-3.70;99.90;;;;;;5061273;28;20036;-71
2021/12/21 08:48:22;;;;;;;34.07;22.17;;;-3.70;99.90;;;;;;5084032;28;20059;-72
2021/12/21 08:50:50;;;;;;;29.70;21.67;;;-3.70;99.90;;;;;;5061140;28;20400;-72
2021/12/21 08:53:16;;;;;;;24.45;19.25;;;-3.70;99.90;;;;;;5071811;28;20757;-71
2021/12/21 08:55:43;;;;;;;26.63;21.33;;;-3.70;99.90;;;;;;5082622;28;20054;-72
2021/12/21 08:58:10;;;;;;;28.63;22.37;;;-3.60;99.90;;;;;;5061110;28;20109;-71
2021/12/21 09:00:36;;;;;;;27.77;22.67;;;-3.60;99.90;;;;;;5062406;28;20044;-72
2021/12/21 09:03:03;;;;;;;33.33;22.37;;;-3.60;99.90;;;;;;5062375;28;20062;-71
2021/12/21 09:05:31;;;;;;;31.80;22.63;;;-3.60;99.90;;;;;;5060520;28;20040;-71
2021/12/21 09:07:58;;;;;;;31.90;24.67;;;-3.50;99.90;;;;;;5059068;28;20071;-72
2021/12/21 09:10:25;;;;;;;33.05;25.23;;;-3.50;99.90;;;;;;5066537;28;20078;-71
2021/12/21 09:12:51;;;;;;;37.73;25.40;;;-3.40;99.90;;;;;;5048604;28;20054;-71
2021/12/21 09:15:19;;;;;;;43.20;25.30;;;-3.40;99.90;;;;;;5058297;28;20037;-71
2021/12/21 09:17:45;;;;;;;30.57;23.80;;;-3.40;99.90;;;;;;5062059;28;20463;-71
2021/12/21 09:20:14;;;;;;;31.40;25.77;;;-3.30;99.90;;;;;;5064418;28;20528;-71
2021/12/21 09:22:40;;;;;;;;;;;-3.30;99.90;;;;;;5067599;28;20048;-71
2021/12/21 09:25:07;;;;;;;33.97;25.83;;;-3.40;99.90;;;;;;5069021;28;20384;-71
2021/12/21 09:27:32;;;;;;;36.03;26.90;;;-3.30;99.90;;;;;;5078204;28;20059;-71
2021/12/21 09:29:58;;;;;;;39.53;28.97;;;-3.20;99.90;;;;;;5087192;28;20052;-71
2021/12/21 09:32:25;;;;;;;45.13;29.57;;;-3.20;99.90;;;;;;5068008;28;20047;-71
2021/12/21 09:34:51;;;;;;;41.75;29.65;;;-3.10;99.90;;;;;;5066699;28;20044;-71
2021/12/21 09:37:20;;;;;;;43.30;31.23;;;-3.10;99.90;;;;;;5063450;28;20059;-71
2021/12/21 09:39:53;;;;;;;41.42;30.40;;;-3.00;99.90;;;;;;5067111;28;20074;-71
2021/12/21 09:42:22;;;;;;;44.30;32.40;;;-2.90;99.90;;;;;;5068631;28;20065;-71
2021/12/21 09:44:48;;;;;;;37.20;31.10;;;-2.90;99.90;;;;;;5061278;28;20046;-71
2021/12/21 09:47:15;;;;;;;54.00;38.25;;;-2.70;99.90;;;;;;5087013;28;20044;-71
2021/12/21 09:49:43;;;;;;;52.65;38.88;;;-2.60;99.90;;;;;;5063255;28;20456;-70
2021/12/21 09:52:11;;;;;;;63.17;40.60;;;-2.50;99.90;;;;;;5082627;28;20055;-69
2021/12/21 09:54:40;;;;;;;48.58;39.72;;;-2.30;99.90;;;;;;5062885;28;20048;-69
2021/12/21 09:57:07;;;;;;;56.10;41.45;;;-2.20;99.90;;;;;;5067420;28;20097;-69
2021/12/21 09:59:34;;;;;;;64.73;43.47;;;-2.10;99.90;;;;;;5056078;28;20049;-69
2021/12/21 10:02:01;;;;;;;59.13;43.70;;;-2.00;99.90;;;;;;5064711;28;20460;-69
2021/12/21 10:04:28;;;;;;;61.13;46.83;;;-1.90;99.90;;;;;;5062483;28;20052;-69
2021/12/21 10:06:56;;;;;;;61.95;48.00;;;-1.70;99.90;;;;;;5078892;28;20052;-69
2021/12/21 10:09:31;;;;;;;69.63;49.50;;;-1.60;99.90;;;;;;5081271;28;20076;-69
2021/12/21 10:11:56;;;;;;;73.28;49.20;;;-1.50;99.90;;;;;;5078536;28;20052;-70
2021/12/21 10:14:24;;;;;;;65.72;46.38;;;-1.30;99.90;;;;;;5059451;28;20119;-70
2021/12/21 10:17:00;;;;;;;69.60;46.47;;;-1.10;99.90;;;;;;5085401;28;20052;-69
2021/12/21 10:19:26;;;;;;;72.05;49.00;;;-1.00;99.90;;;;;;5085558;28;20048;-69
2021/12/21 10:21:51;;;;;;;62.17;45.63;;;-0.90;99.90;;;;;;5080888;28;20047;-70
2021/12/21 10:24:28;;;;;;;65.97;47.30;;;-0.70;99.90;;;;;;5061792;28;20442;-69
2021/12/21 10:27:06;;;;;;;57.15;44.80;;;-0.60;99.90;;;;;;5081525;28;20052;-69
2021/12/21 10:29:43;;;;;;;69.05;46.47;;;-0.50;99.90;;;;;;5059749;28;20056;-70
2021/12/21 10:32:29;;;;;;;64.95;47.03;;;-0.40;99.90;;;;;;5058930;28;20041;-69
2021/12/21 10:35:03;;;;;;;68.07;47.58;;;-0.30;99.90;;;;;;5081691;28;20058;-69
2021/12/21 10:37:36;;;;;;;61.85;46.10;;;-0.20;99.90;;;;;;5065896;28;20040;-70
2021/12/21 10:40:09;;;;;;;67.60;45.55;;;0.00;99.90;;;;;;5081068;28;20425;-70
2021/12/21 10:42:51;;;;;;;61.53;44.40;;;0.10;99.90;;;;;;5082526;28;20040;-70
2021/12/21 10:45:22;;;;;;;59.50;46.45;;;0.30;99.90;;;;;;5056767;28;20046;-69
2021/12/21 10:47:49;;;;;;;74.57;49.05;;;0.40;99.90;;;;;;5082065;28;20079;-69
2021/12/21 10:50:15;;;;;;;63.83;42.70;;;0.60;99.90;;;;;;5086370;28;20050;-70
2021/12/21 10:52:54;;;;;;;65.38;47.58;;;0.70;99.90;;;;;;5085843;28;20090;-69
2021/12/21 10:55:35;;;;;;;58.70;44.47;;;0.90;99.90;;;;;;5067077;28;20051;-70
2021/12/21 10:58:04;;;;;;;56.58;43.78;;;1.10;99.90;;;;;;5071688;28;20048;-70
2021/12/21 11:00:30;;;;;;;53.30;42.92;;;1.20;99.90;;;;;;5069537;28;20067;-70
2021/12/21 11:02:56;;;;;;;58.58;44.55;;;1.30;99.90;;;;;;5062267;28;20045;-70
2021/12/21 11:05:22;;;;;;;61.28;41.55;;;1.50;99.90;;;;;;5067277;28;20049;-70
2021/12/21 11:07:53;;;;;;;64.95;42.28;;;1.60;99.90;;;;;;5088501;28;20067;-70
2021/12/21 11:10:27;;;;;;;50.65;40.70;;;1.70;99.90;;;;;;5085057;28;20040;-70
2021/12/21 11:12:59;;;;;;;60.90;43.80;;;1.90;99.90;;;;;;5086080;28;20043;-70
2021/12/21 11:15:34;;;;;;;57.22;41.92;;;2.00;99.90;;;;;;5065724;28;20115;-70
2021/12/21 11:18:13;;;;;;;49.80;40.33;;;2.20;99.90;;;;;;5067096;28;20059;-70
2021/12/21 11:20:41;;;;;;;42.72;37.22;;;2.30;99.90;;;;;;5065410;28;20051;-70
2021/12/21 11:23:06;;;;;;;63.05;41.05;;;2.40;99.90;;;;;;5066722;28;20045;-70
2021/12/21 11:25:34;;;;;;;47.72;36.60;;;2.50;99.90;;;;;;5078121;28;20040;-70
2021/12/21 11:28:04;;;;;;;54.17;39.05;;;2.60;99.90;;;;;;5064621;28;20084;-71
2021/12/21 11:30:34;;;;;;;51.97;39.53;;;2.70;99.90;;;;;;5063585;28;20526;-70
2021/12/21 11:33:03;;;;;;;50.00;36.15;;;2.70;99.90;;;;;;5061662;28;20052;-70
2021/12/21 11:38:08;;;;;;;50.95;38.35;;;2.80;99.90;;;;;;5088168;28;20056;-70
2021/12/21 11:40:43;;;;;;;45.03;35.75;;;2.90;99.90;;;;;;5075479;28;20048;-70
2021/12/21 11:43:34;;;;;;;42.38;35.00;;;2.90;99.90;;;;;;5084173;28;20044;-70
2021/12/21 11:46:13;;;;;;;50.35;36.85;;;3.00;99.90;;;;;;5088944;28;20544;-70
2021/12/21 11:48:42;;;;;;;;;;;3.00;99.90;;;;;;5085396;28;20052;-69
2021/12/21 11:51:10;;;;;;;42.88;33.97;;;3.00;99.90;;;;;;5086696;28;19924;-69
2021/12/21 11:53:37;;;;;;;44.03;35.05;;;3.10;99.90;;;;;;5087354;28;20052;-70
2021/12/21 11:56:05;;;;;;;57.83;34.60;;;3.20;99.90;;;;;;5062251;28;20047;-70
2021/12/21 11:58:41;;;;;;;43.13;32.85;;;3.30;99.90;;;;;;5064798;28;20090;-70
2021/12/21 12:01:25;;;;;;;44.20;33.63;;;3.40;99.90;;;;;;5062590;28;20051;-70
2021/12/21 12:03:59;;;;;;;46.47;34.90;;;3.40;99.90;;;;;;5079008;28;20877;-70
2021/12/21 12:06:27;;;;;;;40.08;32.90;;;3.50;99.90;;;;;;5083926;28;20051;-70
2021/12/21 12:09:01;;;;;;;45.92;35.35;;;3.60;99.90;;;;;;5087886;28;20108;-70
2021/12/21 12:11:39;;;;;;;49.20;33.28;;;3.70;99.90;;;;;;5087401;28;20055;-70
2021/12/21 12:14:09;;;;;;;44.58;32.33;;;3.80;99.90;;;;;;5081280;28;20664;-70
2021/12/21 12:16:55;;;;;;;44.17;32.13;;;3.80;99.90;;;;;;5085784;28;20048;-69
2021/12/21 12:19:32;;;;;;;44.60;30.77;;;3.90;99.90;;;;;;5083956;28;20047;-70
2021/12/21 12:22:07;;;;;;;38.97;30.47;;;3.90;99.90;;;;;;5063073;28;20044;-70
2021/12/21 12:24:39;;;;;;;42.63;30.98;;;3.90;99.90;;;;;;5058249;28;20056;-69
2021/12/21 12:27:29;;;;;;;44.42;30.92;;;3.90;99.90;;;;;;5081082;28;20127;-70
2021/12/21 12:30:01;;;;;;;49.00;30.13;;;3.90;99.90;;;;;;5063451;28;20097;-70
2021/12/21 12:32:40;;;;;;;46.55;27.58;;;3.90;99.90;;;;;;5062719;28;20132;-70
2021/12/21 12:35:11;;;;;;;39.53;28.80;;;3.90;99.90;;;;;;5062965;28;20074;-70
2021/12/21 12:38:02;;;;;;;45.78;28.38;;;3.90;99.90;;;;;;5084659;28;20441;-70
2021/12/21 12:40:30;;;;;;;39.15;28.48;;;3.90;99.90;;;;;;5064621;28;20059;-70
2021/12/21 12:43:07;;;;;;;48.58;30.92;;;3.90;99.90;;;;;;5079744;28;20032;-70
2021/12/21 12:45:50;;;;;;;36.55;27.80;;;3.90;99.90;;;;;;5081386;28;20824;-70
2021/12/21 12:48:23;;;;;;;43.58;27.83;;;3.90;99.90;;;;;;5043545;28;20050;-70
2021/12/21 12:50:52;;;;;;;38.92;28.10;;;3.90;99.90;;;;;;5067274;28;20036;-70
2021/12/21 12:53:18;;;;;;;39.97;23.92;;;3.90;99.90;;;;;;5063782;28;20048;-70
2021/12/21 12:55:45;;;;;;;36.13;27.00;;;3.90;99.90;;;;;;5083504;28;20044;-70
2021/12/21 12:58:20;;;;;;;38.47;26.70;;;3.90;99.90;;;;;;5084465;28;20463;-70
2021/12/21 13:01:18;;;;;;;42.55;26.70;;;3.90;99.90;;;;;;5065429;28;20040;-70
2021/12/21 13:03:44;;;;;;;;;;;3.90;99.90;;;;;;5083512;28;20056;-71
2021/12/21 13:06:13;;;;;;;36.13;25.42;;;3.80;99.90;;;;;;5066318;28;20387;-71
2021/12/21 13:08:40;;;;;;;40.20;27.58;;;3.70;99.90;;;;;;5067905;28;20485;-70
2021/12/21 13:11:06;;;;;;;46.22;26.85;;;3.70;99.90;;;;;;5065516;28;20043;-70
2021/12/21 13:13:44;;;;;;;38.92;26.95;;;3.70;99.90;;;;;;5067054;28;20509;-70
2021/12/21 13:16:18;;;;;;;34.70;25.90;;;3.70;99.90;;;;;;5064649;28;20787;-70
2021/12/21 13:18:48;;;;;;;38.58;27.13;;;3.70;99.90;;;;;;5082470;28;20565;-71
2021/12/21 13:21:25;;;;;;;34.25;26.25;;;3.60;99.90;;;;;;5057654;28;20050;-71
2021/12/21 13:23:58;;;;;;;42.63;27.48;;;3.60;99.90;;;;;;5059755;28;20136;-71
2021/12/21 13:26:35;;;;;;;38.45;27.15;;;3.50;99.90;;;;;;5062966;28;20062;-71
2021/12/21 13:29:02;;;;;;;35.53;27.52;;;3.50;99.90;;;;;;5067810;28;20059;-70
2021/12/21 13:31:28;;;;;;;40.13;28.63;;;3.40;99.90;;;;;;5077774;28;20058;-70
2021/12/21 13:33:56;;;;;;;33.20;25.63;;;3.30;99.90;;;;;;5067964;28;20036;-71
2021/12/21 13:36:34;;;;;;;37.72;27.17;;;3.30;99.90;;;;;;5085381;28;20044;-70
2021/12/21 13:39:22;;;;;;;39.70;26.85;;;3.20;99.90;;;;;;5086280;28;20066;-71
2021/12/21 13:41:47;;;;;;;40.08;28.10;;;3.10;99.90;;;;;;5068469;28;20071;-71
2021/12/21 13:44:24;;;;;;;38.45;27.38;;;3.00;99.90;;;;;;5069044;28;20049;-71
2021/12/21 13:46:50;;;;;;;41.95;28.75;;;3.00;99.90;;;;;;5067278;28;20865;-71